Terminal Aerodrome Forecast
Issued by NWS

Home | Current Version | Previous Version | Text Only | Print | Product List | Glossary On
Versions: 1 2 3 4 5 6 7 8 9 10 11 12 13 14 15 16 17 18 19 20 21 22 23
000
FTUS45 KGJT 181127
TAFEGE
TAF
KEGE 181127Z 1812/1912 00000KT P6SM SCT250
     FM181400 VRB03KT P6SM SCT140 BKN250
     FM181900 22007KT P6SM SCT140 OVC200
     FM190100 08004KT P6SM SCT120 OVC200
      AMD LTD TO CLD VIS AND WIND TIL 181400=

USA.gov is the U.S. government's official web portal to all federal, state and local government web resources and services.